Airfield :







YOU CAN JOIN US ON...

 
LOGIN :

Register | Disclaimer

   EN    FR    IT 

 









Legend :    VFR   Marginal VFR   IFR   Intensive IFR   Very Intensive IFR
Visi :
Ceiling :
>= 8 km
>= 3000ft
5 to 8 km
1000 to 3000 ft
1500m to 5 km
500 to 1000 ft
800 to 1500m
200 to 500 ft
< 800m
< 200 ft
Symbols :   Thunderstorms  Fog  Heavy snow  Heavy precipitations  Wind > 20 kt







- Airport Elevation : 228 ft


KFSO - Franklin County State

CURRENT METAR :
  • 230536Z AUTO 35005KT 10SM CLR 09/02 A3007 RMK AO2 T00850022

EXPIRED METARs :
  • 230516Z AUTO 01005KT 10SM CLR 09/02 A3008 RMK AO2 T00850024
  • 230455Z AUTO 36006KT 10SM CLR 09/03 A3009 RMK AO2 T00870026 401920049
  • 230435Z AUTO 35005KT 10SM CLR 09/03 A3009 RMK AO2 T00900031
  • 230416Z AUTO 34005KT 10SM CLR 09/04 A3010 RMK AO2 T00900035
  • 230356Z AUTO 35005KT 10SM CLR 09/04 A3010 RMK AO2 T00930040
  • 230336Z AUTO 32003KT 10SM CLR 09/05 A3011 RMK AO2 T00930045
  • 230316Z AUTO 34004KT 10SM CLR 10/04 A3011 RMK AO2 T00980044
  • 230256Z AUTO 00000KT 10SM CLR 10/04 A3012 RMK AO2 T01000036

TAF N/A
KZBW FIR / North America



MET'MAP, your aeronautical weather chart ! - Copyright ORBIFLY December 2007 - Disclaimer

ORBIFLY MET'MAP TEAM :

Programming & Development : Alexandra Zaïnal
Concept & Development : Baudouin d'Aumeries
Co-Development & Prog : Marc-Olivier Méhu
Technical & hardware support : Manuel Goepfert

Contact : metmap@orbifly.com




SOURCES & CREDITS :

   NOAA